الصفحة الرئيسية
METAR-TAF:

METAR-TAF

مطار :

Pekanbaru, إندونيسيا

دائرة عرض: 00-28N, خط طول: 101-27E, ارتفاع: 31 متر

مراقبة الطقس الحالي

تاريخ ووقت الإصدار 35 دقيقة قبل الساعة 05:00UTC
ريح 9 عقدة من الجنوب/الجنوب الشرقي
درجة الحرارة 32°درجة مئوية
الرطوبة 67%
ضغط 1005 hPa
الرؤية 10 كم أو أكثر
غيوم متفرقة على ارتفاع 1300 قدم

METAR: WIBB 190500Z 15009KT 9999 SCT013 32/25 Q1005

زمن: 12:35 (05:35 UTC)


TAF: مفقودة

أرصاد الطقس والتوقعات من أكثر من 4000 مطار (تقارير الطقس للمطار METAR والتنبؤ بالطقس بالمطارTAF).

المحطات المتاحة هي النقط الصفراء والحمراء على الخريطة.

حرك المؤشر فوق النقطة لمعرفة اسم المحطة.

ثم انقر لمعرفة أرصاد وتوقعات الطقس.

لتغيير الخارطة: اضغط على الأزرار الخضراء مع رمز الصليب الأسود للتكبير. على الزر الأخضر مع شرطة للتصغير، أو على الأسهم الخضراء للخرائط المجاورة.


METAR-TAF: